createdAt,value
2022-12-12T00:04:17.905Z,14.87
2022-12-12T00:09:21.007Z,14.10
2022-12-12T00:14:28.661Z,13.23
2022-12-12T00:19:31.862Z,13.40
2022-12-12T00:24:34.922Z,13.73
2022-12-12T00:29:39.292Z,14.73
2022-12-12T00:34:42.332Z,15.77
2022-12-12T00:39:45.551Z,15.33
2022-12-12T00:44:50.004Z,14.53
2022-12-12T00:49:53.150Z,15.13
2022-12-12T00:54:59.236Z,17.23
2022-12-12T01:00:03.715Z,15.03
2022-12-12T01:05:07.745Z,15.30
2022-12-12T01:10:12.024Z,15.13
2022-12-12T01:15:16.603Z,15.47
2022-12-12T01:20:23.263Z,14.77
2022-12-12T01:25:26.224Z,14.37
2022-12-12T01:30:30.940Z,15.67
2022-12-12T01:35:35.593Z,15.33
2022-12-12T01:40:38.988Z,15.60
2022-12-12T01:46:30.554Z,15.97
2022-12-12T01:51:35.377Z,14.67
2022-12-12T01:56:40.742Z,16.23
2022-12-12T02:01:44.264Z,16.03
2022-12-12T02:06:50.284Z,17.57
2022-12-12T02:11:55.687Z,17.27
2022-12-12T02:18:02.246Z,18.17
2022-12-12T02:23:41.894Z,16.83
2022-12-12T02:29:14.917Z,16.47
2022-12-12T02:34:28.381Z,16.37
2022-12-12T02:39:40.963Z,17.30
2022-12-12T02:44:53.369Z,16.43
2022-12-12T02:50:02.949Z,16.93
2022-12-12T02:55:06.752Z,15.80
2022-12-12T03:00:12.624Z,16.03
2022-12-12T03:05:51.254Z,17.37
2022-12-12T03:10:58.887Z,15.97
2022-12-12T03:16:19.060Z,16.07
2022-12-12T03:21:29.280Z,15.53
2022-12-12T03:26:37.142Z,15.03
2022-12-12T03:31:45.894Z,14.90
2022-12-12T03:36:57.986Z,15.80
2022-12-12T03:42:09.788Z,16.53
2022-12-12T03:47:16.883Z,15.37
2022-12-12T03:52:28.119Z,14.93
2022-12-12T03:57:35.921Z,15.10
2022-12-12T04:02:43.046Z,16.00
2022-12-12T04:07:52.912Z,14.27
2022-12-12T04:13:07.187Z,14.97
2022-12-12T04:18:18.180Z,15.60
2022-12-12T04:23:32.974Z,15.10
2022-12-12T04:28:41.169Z,14.80
2022-12-12T04:33:50.621Z,14.37
2022-12-12T04:38:55.988Z,15.37
2022-12-12T04:44:02.330Z,13.97
2022-12-12T04:49:09.184Z,15.60
2022-12-12T04:54:19.509Z,14.40
2022-12-12T04:59:23.067Z,16.07
2022-12-12T05:04:31.226Z,15.37
2022-12-12T05:09:36.429Z,14.63
2022-12-12T05:14:39.460Z,16.00
2022-12-12T05:19:43.451Z,16.30
2022-12-12T05:24:47.953Z,15.40
2022-12-12T05:29:50.994Z,15.23
2022-12-12T05:34:54.098Z,15.70
2022-12-12T05:39:58.728Z,14.33
2022-12-12T05:45:02.354Z,16.13
2022-12-12T05:50:05.982Z,14.87
2022-12-12T05:55:10.850Z,15.33
2022-12-12T06:00:15.458Z,15.90
2022-12-12T06:05:18.682Z,15.43
2022-12-12T06:10:23.112Z,16.40
2022-12-12T06:15:29.019Z,16.60
2022-12-12T06:20:32.573Z,17.97
2022-12-12T06:25:36.980Z,16.37
2022-12-12T06:30:40.071Z,16.27
2022-12-12T06:35:43.221Z,15.73
2022-12-12T06:40:47.631Z,16.60
2022-12-12T06:45:50.640Z,15.00
2022-12-12T06:50:53.702Z,15.93
2022-12-12T06:56:00.013Z,15.33
2022-12-12T07:01:03.413Z,16.10
2022-12-12T07:06:07.166Z,15.37
2022-12-12T07:11:13.686Z,15.93
2022-12-12T07:16:17.075Z,14.60
2022-12-12T07:21:21.585Z,13.17
2022-12-12T07:26:27.456Z,14.13
2022-12-12T07:31:30.625Z,15.47
2022-12-12T07:36:33.850Z,15.37
2022-12-12T07:41:40.910Z,14.07
2022-12-12T07:46:44.239Z,15.30
2022-12-12T07:51:49.396Z,14.90
2022-12-12T07:56:54.361Z,14.07
2022-12-12T08:02:00.759Z,14.03
2022-12-12T08:07:08.295Z,14.10
2022-12-12T08:12:13.210Z,14.10
2022-12-12T08:17:16.308Z,14.93
2022-12-12T08:22:19.623Z,15.40
2022-12-12T08:27:24.241Z,14.90
2022-12-12T08:32:27.325Z,14.77
2022-12-12T08:37:31.155Z,15.47
2022-12-12T08:42:36.666Z,14.47
2022-12-12T08:47:39.894Z,16.17
2022-12-12T08:52:42.839Z,16.50
2022-12-12T08:57:47.234Z,16.13
2022-12-12T09:02:50.403Z,16.63
2022-12-12T09:07:53.503Z,15.67
2022-12-12T09:12:59.813Z,14.07
2022-12-12T09:18:09.275Z,14.77
2022-12-12T09:23:12.492Z,14.33
2022-12-12T09:28:19.818Z,14.63
2022-12-12T09:33:22.932Z,14.80
2022-12-12T09:38:25.939Z,14.93
2022-12-12T09:43:34.863Z,13.60
2022-12-12T09:48:43.249Z,12.57
2022-12-12T09:53:48.115Z,13.53
2022-12-12T09:58:59.515Z,14.67
2022-12-12T10:04:14.833Z,13.43
2022-12-12T10:09:40.238Z,12.83
2022-12-12T10:14:49.258Z,11.87
2022-12-12T10:19:55.124Z,12.57
2022-12-12T10:25:05.121Z,12.40
2022-12-12T10:30:17.026Z,12.13
2022-12-12T10:35:28.963Z,12.57
2022-12-12T10:40:44.927Z,11.97
2022-12-12T10:46:10.544Z,12.83
2022-12-12T10:51:17.723Z,11.33
2022-12-12T10:56:22.786Z,12.23
2022-12-12T11:06:56.833Z,11.40
2022-12-12T11:12:01.871Z,11.50
2022-12-12T11:17:22.003Z,12.30
2022-12-12T11:22:26.449Z,11.50
2022-12-12T11:27:33.527Z,10.90
2022-12-12T11:32:42.744Z,12.67
2022-12-12T11:37:49.808Z,10.73
2022-12-12T11:42:57.360Z,12.00
2022-12-12T11:48:02.125Z,12.57
2022-12-12T11:53:09.637Z,11.57
2022-12-12T11:58:21.593Z,11.73
2022-12-12T12:03:30.679Z,12.40
2022-12-12T12:08:49.010Z,11.43
2022-12-12T12:14:13.686Z,12.00
2022-12-12T12:19:26.839Z,12.30
2022-12-12T12:24:46.409Z,11.57
2022-12-12T12:30:07.587Z,12.17
2022-12-12T12:35:24.965Z,11.90
2022-12-12T12:40:41.800Z,11.87
2022-12-12T12:45:49.768Z,11.63
2022-12-12T12:51:04.926Z,11.80
2022-12-12T12:56:23.615Z,11.17
2022-12-12T13:01:35.248Z,12.00
2022-12-12T13:06:46.623Z,10.93
2022-12-12T13:11:53.569Z,10.63
2022-12-12T13:16:57.939Z,11.73
2022-12-12T13:22:07.490Z,10.50
2022-12-12T13:27:16.767Z,11.37
2022-12-12T13:33:09.677Z,10.73
2022-12-12T13:38:23.353Z,12.00
2022-12-12T13:43:41.263Z,10.27
2022-12-12T13:48:50.236Z,10.43
2022-12-12T13:54:35.484Z,11.10
2022-12-12T14:00:26.868Z,10.17
2022-12-12T14:05:33.153Z,10.43
2022-12-12T14:10:41.280Z,9.57
2022-12-12T14:15:46.067Z,10.37
2022-12-12T14:20:58.142Z,10.87
2022-12-12T14:26:23.491Z,11.73
2022-12-12T14:31:34.846Z,10.47
2022-12-12T14:37:09.932Z,11.07
2022-12-12T14:42:26.273Z,11.93
2022-12-12T14:47:29.596Z,11.13
2022-12-12T14:52:33.184Z,11.17
2022-12-12T14:57:38.030Z,11.20
2022-12-12T15:02:41.223Z,10.10
2022-12-12T15:07:44.423Z,11.63
2022-12-12T15:12:48.962Z,10.73
2022-12-12T15:17:53.189Z,11.43
2022-12-12T15:22:58.761Z,11.47
2022-12-12T15:28:04.171Z,10.53
2022-12-12T15:33:10.102Z,10.40
2022-12-12T15:38:14.336Z,10.50
2022-12-12T15:43:23.330Z,10.97
2022-12-12T15:48:27.463Z,11.00
2022-12-12T15:53:35.413Z,12.00
2022-12-12T15:58:41.970Z,10.87
2022-12-12T16:03:57.212Z,11.37
2022-12-12T16:09:11.525Z,11.50
2022-12-12T16:14:42.773Z,12.33
2022-12-12T16:19:53.868Z,12.47
2022-12-12T16:25:12.333Z,11.90
2022-12-12T16:30:17.497Z,11.67
2022-12-12T16:35:23.337Z,11.27
2022-12-12T16:40:26.749Z,11.97
2022-12-12T16:45:31.274Z,12.10
2022-12-12T16:50:34.392Z,11.70
2022-12-12T16:55:40.841Z,12.93
2022-12-12T17:00:46.282Z,13.10
2022-12-12T17:05:49.779Z,12.67
2022-12-12T17:11:10.153Z,11.93
2022-12-12T17:16:22.684Z,12.00
2022-12-12T17:21:29.101Z,12.13
2022-12-12T17:26:32.540Z,12.57
2022-12-12T17:31:37.669Z,47.87
2022-12-12T17:36:42.137Z,31.23
2022-12-12T17:41:45.549Z,15.07
2022-12-12T17:46:50.125Z,14.63
2022-12-12T17:51:53.256Z,15.27
2022-12-12T17:56:56.880Z,21.73
2022-12-12T18:02:01.330Z,24.40
2022-12-12T18:07:04.516Z,29.40
2022-12-12T18:12:08.439Z,21.20
2022-12-12T18:17:12.993Z,15.67
2022-12-12T18:22:18.252Z,12.63
2022-12-12T18:27:21.477Z,12.27
2022-12-12T18:32:25.901Z,12.40
2022-12-12T18:37:28.853Z,11.73
2022-12-12T18:42:32.328Z,11.87
2022-12-12T18:47:37.081Z,11.37
2022-12-12T18:52:40.319Z,11.70
2022-12-12T18:57:43.664Z,12.40
2022-12-12T19:02:48.365Z,10.80
2022-12-12T19:07:52.005Z,11.87
2022-12-12T19:12:57.001Z,11.10
2022-12-12T19:18:01.495Z,11.00
2022-12-12T19:23:04.916Z,11.37
2022-12-12T19:28:15.739Z,10.53
2022-12-12T19:33:20.711Z,12.27
2022-12-12T19:38:24.666Z,11.27
2022-12-12T19:43:30.436Z,11.07
2022-12-12T19:48:39.944Z,11.13
2022-12-12T19:53:45.167Z,10.90
2022-12-12T19:58:49.262Z,11.13
2022-12-12T20:04:01.171Z,11.50
2022-12-12T20:09:04.463Z,11.47
2022-12-12T20:14:07.452Z,11.10
2022-12-12T20:19:12.876Z,11.63
2022-12-12T20:24:16.788Z,11.03
2022-12-12T20:29:21.653Z,12.13
2022-12-12T20:34:26.184Z,11.03
2022-12-12T20:39:29.641Z,11.23
2022-12-12T20:44:32.803Z,12.10
2022-12-12T20:49:55.020Z,11.70
2022-12-12T20:55:00.987Z,11.80
2022-12-12T21:00:04.503Z,11.00
2022-12-12T21:05:10.019Z,11.83
2022-12-12T21:10:13.237Z,12.77
2022-12-12T21:15:16.594Z,11.33
2022-12-12T21:20:24.229Z,11.63
2022-12-12T21:25:29.972Z,11.67
2022-12-12T21:30:33.525Z,12.10
2022-12-12T21:35:41.332Z,11.73
2022-12-12T21:40:44.771Z,11.87
2022-12-12T21:45:47.925Z,12.50
2022-12-12T21:50:52.461Z,11.27
2022-12-12T21:56:05.855Z,11.03
2022-12-12T22:01:11.649Z,12.40
2022-12-12T22:06:18.098Z,11.20
2022-12-12T22:11:40.552Z,10.83
2022-12-12T22:16:45.386Z,12.27
2022-12-12T22:21:50.615Z,11.37
2022-12-12T22:26:53.825Z,12.17
2022-12-12T22:31:57.507Z,10.93
2022-12-12T22:37:02.220Z,10.80
2022-12-12T22:42:06.178Z,11.73
2022-12-12T22:47:10.040Z,10.53
2022-12-12T22:52:14.673Z,11.07
2022-12-12T22:57:17.779Z,10.77
2022-12-12T23:02:24.982Z,11.07
2022-12-12T23:07:32.615Z,10.90
2022-12-12T23:12:35.672Z,10.70
2022-12-12T23:17:38.728Z,10.57
2022-12-12T23:22:46.435Z,10.43
2022-12-12T23:27:49.551Z,11.60
2022-12-12T23:32:52.701Z,11.07
2022-12-12T23:37:59.338Z,10.33
2022-12-12T23:43:02.333Z,10.60
2022-12-12T23:48:06.330Z,10.40
2022-12-12T23:53:10.945Z,10.60
2022-12-12T23:58:13.930Z,10.37
